sensor_id;sensor_type;location;lat;lon;timestamp;P1;durP1;ratioP1;P2;durP2;ratioP2
21114;SDS011;10715;48.546;9.896;2023-12-20T00:00:53;1.53;;;1.30;;
21114;SDS011;10715;48.546;9.896;2023-12-20T00:03:19;2.20;;;1.33;;
21114;SDS011;10715;48.546;9.896;2023-12-20T00:05:45;4.10;;;2.30;;
21114;SDS011;10715;48.546;9.896;2023-12-20T00:08:11;2.47;;;1.80;;
21114;SDS011;10715;48.546;9.896;2023-12-20T00:10:36;3.80;;;3.10;;
21114;SDS011;10715;48.546;9.896;2023-12-20T00:13:02;11.13;;;3.93;;
21114;SDS011;10715;48.546;9.896;2023-12-20T00:15:28;7.60;;;4.67;;
21114;SDS011;10715;48.546;9.896;2023-12-20T00:17:54;4.33;;;3.90;;
21114;SDS011;10715;48.546;9.896;2023-12-20T00:20:19;3.73;;;2.50;;
21114;SDS011;10715;48.546;9.896;2023-12-20T00:22:45;2.57;;;2.33;;
21114;SDS011;10715;48.546;9.896;2023-12-20T00:25:11;3.43;;;1.70;;
21114;SDS011;10715;48.546;9.896;2023-12-20T00:27:37;3.47;;;1.40;;
21114;SDS011;10715;48.546;9.896;2023-12-20T00:30:02;1.60;;;1.30;;
21114;SDS011;10715;48.546;9.896;2023-12-20T00:32:28;1.03;;;0.40;;
21114;SDS011;10715;48.546;9.896;2023-12-20T00:34:54;1.20;;;0.90;;
21114;SDS011;10715;48.546;9.896;2023-12-20T00:37:20;1.80;;;0.77;;
21114;SDS011;10715;48.546;9.896;2023-12-20T00:39:45;1.13;;;0.50;;
21114;SDS011;10715;48.546;9.896;2023-12-20T00:42:11;2.43;;;0.60;;
21114;SDS011;10715;48.546;9.896;2023-12-20T00:44:37;1.37;;;0.90;;
21114;SDS011;10715;48.546;9.896;2023-12-20T00:47:02;1.00;;;0.70;;
21114;SDS011;10715;48.546;9.896;2023-12-20T00:49:28;1.80;;;0.77;;
21114;SDS011;10715;48.546;9.896;2023-12-20T00:51:54;1.20;;;0.80;;
21114;SDS011;10715;48.546;9.896;2023-12-20T00:54:19;1.87;;;0.80;;
21114;SDS011;10715;48.546;9.896;2023-12-20T00:56:45;1.00;;;0.63;;
21114;SDS011;10715;48.546;9.896;2023-12-20T00:59:11;1.47;;;0.80;;
21114;SDS011;10715;48.546;9.896;2023-12-20T01:01:36;2.00;;;0.63;;
21114;SDS011;10715;48.546;9.896;2023-12-20T01:04:03;1.93;;;0.80;;
21114;SDS011;10715;48.546;9.896;2023-12-20T01:06:29;1.97;;;0.60;;
21114;SDS011;10715;48.546;9.896;2023-12-20T01:08:54;1.00;;;0.80;;
21114;SDS011;10715;48.546;9.896;2023-12-20T01:11:20;1.53;;;1.43;;
21114;SDS011;10715;48.546;9.896;2023-12-20T01:13:46;1.20;;;0.87;;
21114;SDS011;10715;48.546;9.896;2023-12-20T01:16:12;1.97;;;1.10;;
21114;SDS011;10715;48.546;9.896;2023-12-20T01:18:37;1.30;;;0.80;;
21114;SDS011;10715;48.546;9.896;2023-12-20T01:21:04;0.87;;;0.67;;
21114;SDS011;10715;48.546;9.896;2023-12-20T01:23:30;1.37;;;1.03;;
21114;SDS011;10715;48.546;9.896;2023-12-20T01:25:56;1.50;;;0.80;;
21114;SDS011;10715;48.546;9.896;2023-12-20T01:28:22;1.47;;;0.80;;
21114;SDS011;10715;48.546;9.896;2023-12-20T01:30:47;1.13;;;1.00;;
21114;SDS011;10715;48.546;9.896;2023-12-20T01:33:13;1.30;;;1.20;;
21114;SDS011;10715;48.546;9.896;2023-12-20T01:35:39;1.00;;;0.60;;
21114;SDS011;10715;48.546;9.896;2023-12-20T01:38:04;1.33;;;0.80;;
21114;SDS011;10715;48.546;9.896;2023-12-20T01:40:30;1.23;;;0.70;;
21114;SDS011;10715;48.546;9.896;2023-12-20T01:43:00;2.27;;;0.70;;
21114;SDS011;10715;48.546;9.896;2023-12-20T01:45:26;1.10;;;0.80;;
21114;SDS011;10715;48.546;9.896;2023-12-20T01:47:52;1.10;;;0.87;;
21114;SDS011;10715;48.546;9.896;2023-12-20T01:50:20;0.83;;;0.63;;
21114;SDS011;10715;48.546;9.896;2023-12-20T01:52:46;1.00;;;0.60;;
21114;SDS011;10715;48.546;9.896;2023-12-20T01:55:12;1.20;;;0.90;;
21114;SDS011;10715;48.546;9.896;2023-12-20T01:57:43;1.90;;;0.87;;
21114;SDS011;10715;48.546;9.896;2023-12-20T02:00:10;0.97;;;0.60;;
21114;SDS011;10715;48.546;9.896;2023-12-20T02:02:39;1.40;;;0.70;;
21114;SDS011;10715;48.546;9.896;2023-12-20T02:05:05;1.30;;;0.97;;
21114;SDS011;10715;48.546;9.896;2023-12-20T02:07:34;1.97;;;0.63;;
21114;SDS011;10715;48.546;9.896;2023-12-20T02:10:00;2.33;;;0.90;;
21114;SDS011;10715;48.546;9.896;2023-12-20T02:12:27;1.47;;;0.60;;
21114;SDS011;10715;48.546;9.896;2023-12-20T02:14:52;1.17;;;0.70;;
21114;SDS011;10715;48.546;9.896;2023-12-20T02:17:19;1.57;;;0.73;;
21114;SDS011;10715;48.546;9.896;2023-12-20T02:19:45;1.10;;;0.50;;
21114;SDS011;10715;48.546;9.896;2023-12-20T02:22:11;2.00;;;0.93;;
21114;SDS011;10715;48.546;9.896;2023-12-20T02:24:37;1.50;;;0.70;;
21114;SDS011;10715;48.546;9.896;2023-12-20T02:27:03;1.47;;;1.20;;
21114;SDS011;10715;48.546;9.896;2023-12-20T02:29:31;1.00;;;0.70;;
21114;SDS011;10715;48.546;9.896;2023-12-20T02:31:57;1.00;;;0.60;;
21114;SDS011;10715;48.546;9.896;2023-12-20T02:34:22;1.93;;;0.90;;
21114;SDS011;10715;48.546;9.896;2023-12-20T02:36:48;1.30;;;1.20;;
21114;SDS011;10715;48.546;9.896;2023-12-20T02:39:14;1.70;;;1.17;;
21114;SDS011;10715;48.546;9.896;2023-12-20T02:41:39;1.37;;;0.60;;
21114;SDS011;10715;48.546;9.896;2023-12-20T02:44:05;1.90;;;1.10;;
21114;SDS011;10715;48.546;9.896;2023-12-20T02:46:31;1.40;;;1.30;;
21114;SDS011;10715;48.546;9.896;2023-12-20T02:48:56;1.30;;;0.50;;
21114;SDS011;10715;48.546;9.896;2023-12-20T02:51:22;1.43;;;0.80;;
21114;SDS011;10715;48.546;9.896;2023-12-20T02:53:48;1.20;;;0.70;;
21114;SDS011;10715;48.546;9.896;2023-12-20T02:56:13;2.70;;;0.50;;
21114;SDS011;10715;48.546;9.896;2023-12-20T02:58:39;1.00;;;0.40;;
21114;SDS011;10715;48.546;9.896;2023-12-20T03:01:05;0.77;;;0.50;;
21114;SDS011;10715;48.546;9.896;2023-12-20T03:03:31;1.63;;;0.40;;
21114;SDS011;10715;48.546;9.896;2023-12-20T03:05:57;0.77;;;0.30;;
21114;SDS011;10715;48.546;9.896;2023-12-20T03:08:22;0.60;;;0.40;;
21114;SDS011;10715;48.546;9.896;2023-12-20T03:10:48;0.50;;;0.27;;
21114;SDS011;10715;48.546;9.896;2023-12-20T03:13:14;0.50;;;0.20;;
21114;SDS011;10715;48.546;9.896;2023-12-20T03:15:40;0.60;;;0.30;;
21114;SDS011;10715;48.546;9.896;2023-12-20T03:18:05;0.60;;;0.30;;
21114;SDS011;10715;48.546;9.896;2023-12-20T03:20:31;0.90;;;0.27;;
21114;SDS011;10715;48.546;9.896;2023-12-20T03:22:59;0.40;;;0.20;;
21114;SDS011;10715;48.546;9.896;2023-12-20T03:25:26;0.57;;;0.30;;
21114;SDS011;10715;48.546;9.896;2023-12-20T03:27:52;0.50;;;0.30;;
21114;SDS011;10715;48.546;9.896;2023-12-20T03:30:18;0.43;;;0.20;;
21114;SDS011;10715;48.546;9.896;2023-12-20T03:32:44;0.80;;;0.30;;
21114;SDS011;10715;48.546;9.896;2023-12-20T03:35:10;0.40;;;0.20;;
21114;SDS011;10715;48.546;9.896;2023-12-20T03:37:36;0.57;;;0.20;;
21114;SDS011;10715;48.546;9.896;2023-12-20T03:40:02;0.47;;;0.27;;
21114;SDS011;10715;48.546;9.896;2023-12-20T03:42:28;0.40;;;0.20;;
21114;SDS011;10715;48.546;9.896;2023-12-20T03:44:54;0.50;;;0.20;;
21114;SDS011;10715;48.546;9.896;2023-12-20T03:47:20;0.40;;;0.20;;
21114;SDS011;10715;48.546;9.896;2023-12-20T03:49:45;0.50;;;0.20;;
21114;SDS011;10715;48.546;9.896;2023-12-20T03:52:11;0.87;;;0.30;;
21114;SDS011;10715;48.546;9.896;2023-12-20T03:54:37;0.70;;;0.30;;
21114;SDS011;10715;48.546;9.896;2023-12-20T03:57:03;0.50;;;0.20;;
21114;SDS011;10715;48.546;9.896;2023-12-20T03:59:29;0.50;;;0.20;;
21114;SDS011;10715;48.546;9.896;2023-12-20T04:01:59;0.60;;;0.30;;
21114;SDS011;10715;48.546;9.896;2023-12-20T04:04:25;0.40;;;0.20;;
21114;SDS011;10715;48.546;9.896;2023-12-20T04:06:50;0.40;;;0.20;;
21114;SDS011;10715;48.546;9.896;2023-12-20T04:09:16;0.40;;;0.20;;
21114;SDS011;10715;48.546;9.896;2023-12-20T04:11:42;0.50;;;0.23;;
21114;SDS011;10715;48.546;9.896;2023-12-20T04:14:07;0.50;;;0.20;;
21114;SDS011;10715;48.546;9.896;2023-12-20T04:16:34;0.50;;;0.20;;
21114;SDS011;10715;48.546;9.896;2023-12-20T04:19:00;1.90;;;0.30;;
21114;SDS011;10715;48.546;9.896;2023-12-20T04:21:26;0.50;;;0.20;;
21114;SDS011;10715;48.546;9.896;2023-12-20T04:23:51;0.70;;;0.30;;
21114;SDS011;10715;48.546;9.896;2023-12-20T04:26:17;0.50;;;0.20;;
21114;SDS011;10715;48.546;9.896;2023-12-20T04:28:43;4.70;;;0.20;;
21114;SDS011;10715;48.546;9.896;2023-12-20T04:31:08;0.50;;;0.30;;
21114;SDS011;10715;48.546;9.896;2023-12-20T04:33:34;0.60;;;0.30;;
21114;SDS011;10715;48.546;9.896;2023-12-20T04:36:00;0.50;;;0.30;;
21114;SDS011;10715;48.546;9.896;2023-12-20T04:38:25;0.80;;;0.37;;
21114;SDS011;10715;48.546;9.896;2023-12-20T04:40:51;0.50;;;0.30;;
21114;SDS011;10715;48.546;9.896;2023-12-20T04:43:17;0.40;;;0.20;;
21114;SDS011;10715;48.546;9.896;2023-12-20T04:45:43;0.60;;;0.33;;
21114;SDS011;10715;48.546;9.896;2023-12-20T04:48:09;0.60;;;0.30;;
21114;SDS011;10715;48.546;9.896;2023-12-20T04:50:34;0.70;;;0.50;;
21114;SDS011;10715;48.546;9.896;2023-12-20T04:53:00;0.57;;;0.30;;
21114;SDS011;10715;48.546;9.896;2023-12-20T04:55:26;0.40;;;0.20;;
21114;SDS011;10715;48.546;9.896;2023-12-20T04:57:52;0.50;;;0.20;;
21114;SDS011;10715;48.546;9.896;2023-12-20T05:00:17;0.40;;;0.20;;
21114;SDS011;10715;48.546;9.896;2023-12-20T05:02:43;0.40;;;0.20;;
21114;SDS011;10715;48.546;9.896;2023-12-20T05:05:09;0.40;;;0.20;;
21114;SDS011;10715;48.546;9.896;2023-12-20T05:07:35;0.40;;;0.20;;
21114;SDS011;10715;48.546;9.896;2023-12-20T05:10:00;0.50;;;0.20;;
21114;SDS011;10715;48.546;9.896;2023-12-20T05:12:26;0.50;;;0.20;;
21114;SDS011;10715;48.546;9.896;2023-12-20T05:14:52;0.40;;;0.20;;
21114;SDS011;10715;48.546;9.896;2023-12-20T05:17:17;0.50;;;0.20;;
21114;SDS011;10715;48.546;9.896;2023-12-20T05:19:45;0.50;;;0.27;;
21114;SDS011;10715;48.546;9.896;2023-12-20T05:22:11;0.50;;;0.30;;
21114;SDS011;10715;48.546;9.896;2023-12-20T05:24:36;0.50;;;0.30;;
21114;SDS011;10715;48.546;9.896;2023-12-20T05:27:02;0.50;;;0.30;;
21114;SDS011;10715;48.546;9.896;2023-12-20T05:29:28;0.40;;;0.20;;
21114;SDS011;10715;48.546;9.896;2023-12-20T05:31:54;0.50;;;0.20;;
21114;SDS011;10715;48.546;9.896;2023-12-20T05:34:19;0.47;;;0.20;;
21114;SDS011;10715;48.546;9.896;2023-12-20T05:36:45;0.40;;;0.20;;
21114;SDS011;10715;48.546;9.896;2023-12-20T05:39:11;0.40;;;0.20;;
21114;SDS011;10715;48.546;9.896;2023-12-20T05:41:37;0.40;;;0.20;;
21114;SDS011;10715;48.546;9.896;2023-12-20T05:44:02;0.67;;;0.40;;
21114;SDS011;10715;48.546;9.896;2023-12-20T05:46:28;0.60;;;0.40;;
21114;SDS011;10715;48.546;9.896;2023-12-20T05:48:54;0.43;;;0.20;;
21114;SDS011;10715;48.546;9.896;2023-12-20T05:51:20;0.50;;;0.20;;
21114;SDS011;10715;48.546;9.896;2023-12-20T05:53:45;0.50;;;0.30;;
21114;SDS011;10715;48.546;9.896;2023-12-20T05:56:11;0.43;;;0.20;;
21114;SDS011;10715;48.546;9.896;2023-12-20T05:58:38;0.50;;;0.30;;
21114;SDS011;10715;48.546;9.896;2023-12-20T06:01:04;0.83;;;0.40;;
21114;SDS011;10715;48.546;9.896;2023-12-20T06:03:30;0.60;;;0.33;;
21114;SDS011;10715;48.546;9.896;2023-12-20T06:05:56;0.60;;;0.30;;
21114;SDS011;10715;48.546;9.896;2023-12-20T06:08:22;0.50;;;0.30;;
21114;SDS011;10715;48.546;9.896;2023-12-20T06:10:48;0.50;;;0.30;;
21114;SDS011;10715;48.546;9.896;2023-12-20T06:13:14;1.10;;;0.60;;
21114;SDS011;10715;48.546;9.896;2023-12-20T06:15:39;0.60;;;0.40;;
21114;SDS011;10715;48.546;9.896;2023-12-20T06:18:05;0.83;;;0.37;;
21114;SDS011;10715;48.546;9.896;2023-12-20T06:20:32;0.53;;;0.30;;
21114;SDS011;10715;48.546;9.896;2023-12-20T06:22:58;0.60;;;0.30;;
21114;SDS011;10715;48.546;9.896;2023-12-20T06:25:23;0.57;;;0.30;;
21114;SDS011;10715;48.546;9.896;2023-12-20T06:27:49;0.60;;;0.37;;
21114;SDS011;10715;48.546;9.896;2023-12-20T06:30:15;0.60;;;0.30;;
21114;SDS011;10715;48.546;9.896;2023-12-20T06:32:41;0.53;;;0.30;;
21114;SDS011;10715;48.546;9.896;2023-12-20T06:35:08;0.60;;;0.30;;
21114;SDS011;10715;48.546;9.896;2023-12-20T06:37:34;2.27;;;0.40;;
21114;SDS011;10715;48.546;9.896;2023-12-20T06:40:00;0.60;;;0.40;;
21114;SDS011;10715;48.546;9.896;2023-12-20T06:42:26;0.90;;;0.53;;
21114;SDS011;10715;48.546;9.896;2023-12-20T06:44:52;0.93;;;0.70;;
21114;SDS011;10715;48.546;9.896;2023-12-20T06:47:17;0.57;;;0.30;;
21114;SDS011;10715;48.546;9.896;2023-12-20T06:49:43;0.60;;;0.40;;
21114;SDS011;10715;48.546;9.896;2023-12-20T06:52:09;0.70;;;0.40;;
21114;SDS011;10715;48.546;9.896;2023-12-20T06:54:35;0.73;;;0.50;;
21114;SDS011;10715;48.546;9.896;2023-12-20T06:57:01;1.53;;;0.83;;
21114;SDS011;10715;48.546;9.896;2023-12-20T06:59:28;1.77;;;0.80;;
21114;SDS011;10715;48.546;9.896;2023-12-20T07:01:54;1.20;;;0.50;;
21114;SDS011;10715;48.546;9.896;2023-12-20T07:04:20;0.70;;;0.40;;
21114;SDS011;10715;48.546;9.896;2023-12-20T07:06:50;0.80;;;0.40;;
21114;SDS011;10715;48.546;9.896;2023-12-20T07:09:22;0.70;;;0.30;;
21114;SDS011;10715;48.546;9.896;2023-12-20T07:11:48;0.53;;;0.27;;
21114;SDS011;10715;48.546;9.896;2023-12-20T07:14:14;0.90;;;0.30;;
21114;SDS011;10715;48.546;9.896;2023-12-20T07:16:39;0.60;;;0.30;;
21114;SDS011;10715;48.546;9.896;2023-12-20T07:19:05;1.00;;;0.27;;
21114;SDS011;10715;48.546;9.896;2023-12-20T07:21:31;0.53;;;0.23;;
21114;SDS011;10715;48.546;9.896;2023-12-20T07:23:57;0.70;;;0.40;;
21114;SDS011;10715;48.546;9.896;2023-12-20T07:26:22;0.50;;;0.30;;
21114;SDS011;10715;48.546;9.896;2023-12-20T07:28:48;0.50;;;0.30;;
21114;SDS011;10715;48.546;9.896;2023-12-20T07:31:18;0.60;;;0.50;;
21114;SDS011;10715;48.546;9.896;2023-12-20T07:33:43;0.50;;;0.30;;
21114;SDS011;10715;48.546;9.896;2023-12-20T07:36:09;0.60;;;0.30;;
21114;SDS011;10715;48.546;9.896;2023-12-20T07:38:35;2.97;;;0.30;;
21114;SDS011;10715;48.546;9.896;2023-12-20T07:41:01;0.97;;;0.97;;
21114;SDS011;10715;48.546;9.896;2023-12-20T07:43:26;0.57;;;0.30;;
21114;SDS011;10715;48.546;9.896;2023-12-20T07:45:52;0.50;;;0.30;;
21114;SDS011;10715;48.546;9.896;2023-12-20T07:48:18;0.50;;;0.30;;
21114;SDS011;10715;48.546;9.896;2023-12-20T07:50:43;0.60;;;0.20;;
21114;SDS011;10715;48.546;9.896;2023-12-20T07:53:09;0.60;;;0.30;;
21114;SDS011;10715;48.546;9.896;2023-12-20T07:55:35;0.50;;;0.30;;
21114;SDS011;10715;48.546;9.896;2023-12-20T07:58:01;0.50;;;0.30;;
21114;SDS011;10715;48.546;9.896;2023-12-20T08:00:27;0.47;;;0.20;;
21114;SDS011;10715;48.546;9.896;2023-12-20T08:02:53;0.60;;;0.23;;
21114;SDS011;10715;48.546;9.896;2023-12-20T08:05:18;0.50;;;0.20;;
21114;SDS011;10715;48.546;9.896;2023-12-20T08:07:44;0.50;;;0.20;;
21114;SDS011;10715;48.546;9.896;2023-12-20T08:10:10;0.70;;;0.30;;
21114;SDS011;10715;48.546;9.896;2023-12-20T08:12:36;0.50;;;0.20;;
21114;SDS011;10715;48.546;9.896;2023-12-20T08:15:02;0.57;;;0.30;;
21114;SDS011;10715;48.546;9.896;2023-12-20T08:17:29;0.93;;;0.30;;
21114;SDS011;10715;48.546;9.896;2023-12-20T08:19:54;0.60;;;0.30;;
21114;SDS011;10715;48.546;9.896;2023-12-20T08:22:20;0.50;;;0.30;;
21114;SDS011;10715;48.546;9.896;2023-12-20T08:24:46;0.50;;;0.30;;
21114;SDS011;10715;48.546;9.896;2023-12-20T08:27:12;0.50;;;0.30;;
21114;SDS011;10715;48.546;9.896;2023-12-20T08:29:37;0.40;;;0.20;;
21114;SDS011;10715;48.546;9.896;2023-12-20T08:32:03;0.60;;;0.30;;
21114;SDS011;10715;48.546;9.896;2023-12-20T08:34:29;0.60;;;0.30;;
21114;SDS011;10715;48.546;9.896;2023-12-20T08:36:55;0.60;;;0.30;;
21114;SDS011;10715;48.546;9.896;2023-12-20T08:39:21;0.70;;;0.30;;
21114;SDS011;10715;48.546;9.896;2023-12-20T08:41:46;0.67;;;0.40;;
21114;SDS011;10715;48.546;9.896;2023-12-20T08:44:12;1.40;;;0.30;;
21114;SDS011;10715;48.546;9.896;2023-12-20T08:46:38;0.60;;;0.30;;
21114;SDS011;10715;48.546;9.896;2023-12-20T08:49:03;0.70;;;0.30;;
21114;SDS011;10715;48.546;9.896;2023-12-20T08:51:30;0.60;;;0.30;;
21114;SDS011;10715;48.546;9.896;2023-12-20T08:53:55;0.50;;;0.20;;
21114;SDS011;10715;48.546;9.896;2023-12-20T08:56:21;0.60;;;0.30;;
21114;SDS011;10715;48.546;9.896;2023-12-20T08:58:47;0.47;;;0.30;;
21114;SDS011;10715;48.546;9.896;2023-12-20T09:01:13;0.70;;;0.30;;
21114;SDS011;10715;48.546;9.896;2023-12-20T09:03:39;1.57;;;0.30;;
21114;SDS011;10715;48.546;9.896;2023-12-20T09:06:05;0.70;;;0.33;;
21114;SDS011;10715;48.546;9.896;2023-12-20T09:08:31;0.60;;;0.30;;
21114;SDS011;10715;48.546;9.896;2023-12-20T09:10:57;0.60;;;0.40;;
21114;SDS011;10715;48.546;9.896;2023-12-20T09:13:23;0.80;;;0.40;;
21114;SDS011;10715;48.546;9.896;2023-12-20T09:15:54;0.93;;;0.50;;
21114;SDS011;10715;48.546;9.896;2023-12-20T09:18:20;1.03;;;0.90;;
21114;SDS011;10715;48.546;9.896;2023-12-20T09:20:46;1.17;;;0.80;;
21114;SDS011;10715;48.546;9.896;2023-12-20T09:23:12;1.50;;;1.10;;
21114;SDS011;10715;48.546;9.896;2023-12-20T09:25:37;1.20;;;0.90;;
21114;SDS011;10715;48.546;9.896;2023-12-20T09:28:03;1.17;;;0.87;;
21114;SDS011;10715;48.546;9.896;2023-12-20T09:30:29;1.83;;;1.70;;
21114;SDS011;10715;48.546;9.896;2023-12-20T09:32:55;1.43;;;1.20;;
21114;SDS011;10715;48.546;9.896;2023-12-20T09:35:21;1.40;;;1.30;;
21114;SDS011;10715;48.546;9.896;2023-12-20T09:37:47;2.07;;;1.60;;
21114;SDS011;10715;48.546;9.896;2023-12-20T09:40:13;1.23;;;0.90;;
21114;SDS011;10715;48.546;9.896;2023-12-20T09:42:50;2.23;;;1.20;;
21114;SDS011;10715;48.546;9.896;2023-12-20T09:45:35;2.00;;;1.33;;
21114;SDS011;10715;48.546;9.896;2023-12-20T09:48:02;3.20;;;1.10;;
21114;SDS011;10715;48.546;9.896;2023-12-20T09:50:30;2.30;;;1.30;;
21114;SDS011;10715;48.546;9.896;2023-12-20T09:52:57;3.57;;;1.93;;
21114;SDS011;10715;48.546;9.896;2023-12-20T09:55:24;3.43;;;2.00;;
21114;SDS011;10715;48.546;9.896;2023-12-20T09:57:50;1.20;;;1.03;;
21114;SDS011;10715;48.546;9.896;2023-12-20T10:00:16;1.27;;;0.80;;
21114;SDS011;10715;48.546;9.896;2023-12-20T10:02:45;1.67;;;1.30;;
21114;SDS011;10715;48.546;9.896;2023-12-20T10:05:15;2.63;;;2.00;;
21114;SDS011;10715;48.546;9.896;2023-12-20T10:07:45;4.60;;;1.20;;
21114;SDS011;10715;48.546;9.896;2023-12-20T10:10:12;1.83;;;1.60;;
21114;SDS011;10715;48.546;9.896;2023-12-20T10:12:38;1.47;;;0.90;;
21114;SDS011;10715;48.546;9.896;2023-12-20T10:15:05;1.77;;;1.00;;
21114;SDS011;10715;48.546;9.896;2023-12-20T10:17:31;2.50;;;1.70;;
21114;SDS011;10715;48.546;9.896;2023-12-20T10:19:57;2.03;;;1.93;;
21114;SDS011;10715;48.546;9.896;2023-12-20T10:22:23;1.30;;;1.00;;
21114;SDS011;10715;48.546;9.896;2023-12-20T10:24:49;1.00;;;0.70;;
21114;SDS011;10715;48.546;9.896;2023-12-20T10:27:15;1.77;;;1.17;;
21114;SDS011;10715;48.546;9.896;2023-12-20T10:29:44;0.93;;;0.60;;
21114;SDS011;10715;48.546;9.896;2023-12-20T10:32:23;1.50;;;0.60;;
21114;SDS011;10715;48.546;9.896;2023-12-20T10:34:50;1.20;;;0.90;;
21114;SDS011;10715;48.546;9.896;2023-12-20T10:37:17;0.83;;;0.50;;
21114;SDS011;10715;48.546;9.896;2023-12-20T10:39:43;3.13;;;0.80;;
21114;SDS011;10715;48.546;9.896;2023-12-20T10:42:12;1.00;;;0.80;;
21114;SDS011;10715;48.546;9.896;2023-12-20T10:44:38;1.10;;;0.87;;
21114;SDS011;10715;48.546;9.896;2023-12-20T10:47:04;1.20;;;0.70;;
21114;SDS011;10715;48.546;9.896;2023-12-20T10:49:31;0.90;;;0.70;;
21114;SDS011;10715;48.546;9.896;2023-12-20T10:52:01;1.10;;;0.70;;
21114;SDS011;10715;48.546;9.896;2023-12-20T10:54:28;1.20;;;0.60;;
21114;SDS011;10715;48.546;9.896;2023-12-20T10:56:54;1.40;;;0.90;;
21114;SDS011;10715;48.546;9.896;2023-12-20T10:59:23;1.17;;;0.70;;
21114;SDS011;10715;48.546;9.896;2023-12-20T11:01:50;2.20;;;0.70;;
21114;SDS011;10715;48.546;9.896;2023-12-20T11:04:20;0.90;;;0.70;;
21114;SDS011;10715;48.546;9.896;2023-12-20T11:07:05;5.10;;;0.93;;
21114;SDS011;10715;48.546;9.896;2023-12-20T11:09:43;3.63;;;0.87;;
21114;SDS011;10715;48.546;9.896;2023-12-20T11:12:25;2.20;;;0.90;;
21114;SDS011;10715;48.546;9.896;2023-12-20T11:15:01;1.33;;;0.97;;
21114;SDS011;10715;48.546;9.896;2023-12-20T11:17:29;2.50;;;0.97;;
21114;SDS011;10715;48.546;9.896;2023-12-20T11:22:22;1.50;;;0.60;;
21114;SDS011;10715;48.546;9.896;2023-12-20T11:24:53;5.80;;;1.83;;
21114;SDS011;10715;48.546;9.896;2023-12-20T11:27:20;1.50;;;0.80;;
21114;SDS011;10715;48.546;9.896;2023-12-20T11:29:54;1.07;;;0.97;;
21114;SDS011;10715;48.546;9.896;2023-12-20T11:34:53;1.93;;;0.57;;
21114;SDS011;10715;48.546;9.896;2023-12-20T11:37:21;3.97;;;0.70;;
21114;SDS011;10715;48.546;9.896;2023-12-20T11:39:55;2.00;;;0.90;;
21114;SDS011;10715;48.546;9.896;2023-12-20T11:42:21;1.53;;;0.80;;
21114;SDS011;10715;48.546;9.896;2023-12-20T11:44:47;1.77;;;0.50;;
21114;SDS011;10715;48.546;9.896;2023-12-20T11:47:13;1.30;;;0.73;;
21114;SDS011;10715;48.546;9.896;2023-12-20T11:49:40;2.40;;;1.17;;
21114;SDS011;10715;48.546;9.896;2023-12-20T11:52:06;0.90;;;0.60;;
21114;SDS011;10715;48.546;9.896;2023-12-20T11:54:32;5.20;;;0.73;;
21114;SDS011;10715;48.546;9.896;2023-12-20T11:56:57;1.13;;;0.50;;
21114;SDS011;10715;48.546;9.896;2023-12-20T11:59:23;3.73;;;0.60;;
21114;SDS011;10715;48.546;9.896;2023-12-20T12:01:49;1.60;;;0.57;;
21114;SDS011;10715;48.546;9.896;2023-12-20T12:04:16;3.97;;;1.00;;
21114;SDS011;10715;48.546;9.896;2023-12-20T12:06:43;2.40;;;0.57;;
21114;SDS011;10715;48.546;9.896;2023-12-20T12:09:10;7.50;;;0.97;;
21114;SDS011;10715;48.546;9.896;2023-12-20T12:11:35;3.93;;;1.53;;
21114;SDS011;10715;48.546;9.896;2023-12-20T12:14:01;1.10;;;0.43;;
21114;SDS011;10715;48.546;9.896;2023-12-20T12:16:27;2.67;;;0.70;;
21114;SDS011;10715;48.546;9.896;2023-12-20T12:18:56;0.97;;;0.50;;
21114;SDS011;10715;48.546;9.896;2023-12-20T12:21:23;1.53;;;0.60;;
21114;SDS011;10715;48.546;9.896;2023-12-20T12:23:49;2.03;;;0.97;;
21114;SDS011;10715;48.546;9.896;2023-12-20T12:26:14;0.80;;;0.60;;
21114;SDS011;10715;48.546;9.896;2023-12-20T12:28:40;1.47;;;0.50;;
21114;SDS011;10715;48.546;9.896;2023-12-20T12:31:07;13.13;;;2.77;;
21114;SDS011;10715;48.546;9.896;2023-12-20T12:33:34;2.10;;;0.77;;
21114;SDS011;10715;48.546;9.896;2023-12-20T12:36:00;2.00;;;1.80;;
21114;SDS011;10715;48.546;9.896;2023-12-20T12:38:26;2.13;;;0.60;;
21114;SDS011;10715;48.546;9.896;2023-12-20T12:40:52;4.23;;;0.60;;
21114;SDS011;10715;48.546;9.896;2023-12-20T12:43:19;1.10;;;0.90;;
21114;SDS011;10715;48.546;9.896;2023-12-20T12:45:47;5.43;;;0.80;;
21114;SDS011;10715;48.546;9.896;2023-12-20T12:48:13;1.23;;;1.13;;
21114;SDS011;10715;48.546;9.896;2023-12-20T12:50:39;1.53;;;0.60;;
21114;SDS011;10715;48.546;9.896;2023-12-20T12:53:05;0.90;;;0.77;;
21114;SDS011;10715;48.546;9.896;2023-12-20T12:55:31;6.80;;;0.90;;
21114;SDS011;10715;48.546;9.896;2023-12-20T12:57:56;1.27;;;0.70;;
21114;SDS011;10715;48.546;9.896;2023-12-20T13:00:22;7.57;;;0.70;;
21114;SDS011;10715;48.546;9.896;2023-12-20T13:02:49;1.30;;;0.70;;
21114;SDS011;10715;48.546;9.896;2023-12-20T13:05:15;2.83;;;1.00;;
21114;SDS011;10715;48.546;9.896;2023-12-20T13:07:40;3.23;;;1.07;;
21114;SDS011;10715;48.546;9.896;2023-12-20T13:10:10;1.87;;;0.80;;
21114;SDS011;10715;48.546;9.896;2023-12-20T13:12:36;1.70;;;1.00;;
21114;SDS011;10715;48.546;9.896;2023-12-20T13:15:02;5.10;;;2.97;;
21114;SDS011;10715;48.546;9.896;2023-12-20T13:17:31;1.97;;;0.50;;
21114;SDS011;10715;48.546;9.896;2023-12-20T13:19:57;1.30;;;0.90;;
21114;SDS011;10715;48.546;9.896;2023-12-20T13:22:22;1.07;;;0.50;;
21114;SDS011;10715;48.546;9.896;2023-12-20T13:24:48;2.63;;;0.70;;
21114;SDS011;10715;48.546;9.896;2023-12-20T13:27:14;2.30;;;0.80;;
21114;SDS011;10715;48.546;9.896;2023-12-20T13:29:40;3.33;;;0.90;;
21114;SDS011;10715;48.546;9.896;2023-12-20T13:32:05;5.70;;;0.90;;
21114;SDS011;10715;48.546;9.896;2023-12-20T13:34:31;0.70;;;0.50;;
21114;SDS011;10715;48.546;9.896;2023-12-20T13:36:57;0.80;;;0.50;;
21114;SDS011;10715;48.546;9.896;2023-12-20T13:39:23;0.90;;;0.53;;
21114;SDS011;10715;48.546;9.896;2023-12-20T13:41:49;1.17;;;0.57;;
21114;SDS011;10715;48.546;9.896;2023-12-20T13:44:14;1.53;;;1.00;;
21114;SDS011;10715;48.546;9.896;2023-12-20T13:46:40;3.47;;;0.70;;
21114;SDS011;10715;48.546;9.896;2023-12-20T13:49:06;4.00;;;0.50;;
21114;SDS011;10715;48.546;9.896;2023-12-20T13:51:32;0.70;;;0.40;;
21114;SDS011;10715;48.546;9.896;2023-12-20T13:53:58;1.57;;;1.00;;
21114;SDS011;10715;48.546;9.896;2023-12-20T13:56:24;1.00;;;0.60;;
21114;SDS011;10715;48.546;9.896;2023-12-20T13:58:50;2.20;;;0.50;;
21114;SDS011;10715;48.546;9.896;2023-12-20T14:01:16;1.50;;;0.60;;
21114;SDS011;10715;48.546;9.896;2023-12-20T14:03:42;0.90;;;0.50;;
21114;SDS011;10715;48.546;9.896;2023-12-20T14:06:08;3.90;;;0.60;;
21114;SDS011;10715;48.546;9.896;2023-12-20T14:08:33;2.60;;;0.60;;
21114;SDS011;10715;48.546;9.896;2023-12-20T14:11:01;2.50;;;0.57;;
21114;SDS011;10715;48.546;9.896;2023-12-20T14:13:27;4.50;;;0.50;;
21114;SDS011;10715;48.546;9.896;2023-12-20T14:15:52;2.20;;;0.40;;
21114;SDS011;10715;48.546;9.896;2023-12-20T14:18:19;3.60;;;0.50;;
21114;SDS011;10715;48.546;9.896;2023-12-20T14:20:46;0.73;;;0.50;;
21114;SDS011;10715;48.546;9.896;2023-12-20T14:23:13;0.70;;;0.40;;
21114;SDS011;10715;48.546;9.896;2023-12-20T14:25:41;1.23;;;0.50;;
21114;SDS011;10715;48.546;9.896;2023-12-20T14:28:07;4.60;;;0.50;;
21114;SDS011;10715;48.546;9.896;2023-12-20T14:30:33;0.93;;;0.40;;
21114;SDS011;10715;48.546;9.896;2023-12-20T14:33:00;1.77;;;0.50;;
21114;SDS011;10715;48.546;9.896;2023-12-20T14:35:25;3.33;;;0.40;;
21114;SDS011;10715;48.546;9.896;2023-12-20T14:37:51;3.80;;;1.27;;
21114;SDS011;10715;48.546;9.896;2023-12-20T14:40:17;2.20;;;0.80;;
21114;SDS011;10715;48.546;9.896;2023-12-20T14:42:43;0.70;;;0.40;;
21114;SDS011;10715;48.546;9.896;2023-12-20T14:45:09;6.97;;;0.50;;
21114;SDS011;10715;48.546;9.896;2023-12-20T14:47:35;1.90;;;0.50;;